Time;durP1;ratioP1;P1;durP2;ratioP2;P2;SDS_P1;SDS_P2;PMS_P1;PMS_P2;Temp;Humidity;BMP_temperature;BMP_pressure;BME280_temperature;BME280_humidity;BME280_pressure;Samples;Min_cycle;Max_cycle;Signal;HPM_P1;HPM_P2
2023/05/18 00:01:05;;;;;;;10.82;2.80;;;;;;;;;;4907712;29;20107;-66
2023/05/18 00:04:45;;;;;;;13.05;2.60;;;;;;;;;;4905281;29;20074;-67
2023/05/18 00:08:27;;;;;;;12.48;2.85;;;;;;;;;;4914338;29;20044;-66
2023/05/18 00:12:08;;;;;;;11.68;2.75;;;;;;;;;;4914590;29;20095;-66
2023/05/18 00:15:47;;;;;;;14.18;3.15;;;;;;;;;;4909581;29;20044;-64
2023/05/18 00:19:28;;;;;;;8.25;2.70;;;;;;;;;;4916213;29;20060;-64
2023/05/18 00:23:15;;;;;;;13.38;2.50;;;;;;;;;;4906922;29;20043;-63
2023/05/18 00:26:49;;;;;;;8.18;2.72;;;;;;;;;;4905876;29;20525;-64
2023/05/18 00:30:30;;;;;;;14.48;2.90;;;;;;;;;;4907549;29;20079;-66
2023/05/18 00:34:10;;;;;;;8.85;2.50;;;;;;;;;;4909068;29;20056;-64
2023/05/18 00:37:50;;;;;;;14.57;3.47;;;;;;;;;;4910256;29;20058;-64
2023/05/18 00:41:31;;;;;;;16.67;3.80;;;;;;;;;;4910403;29;20044;-66
2023/05/18 00:45:11;;;;;;;10.93;3.30;;;;;;;;;;4905229;29;20064;-64
2023/05/18 00:48:52;;;;;;;9.05;3.08;;;;;;;;;;4904814;29;20054;-64
2023/05/18 00:52:32;;;;;;;12.90;3.50;;;;;;;;;;4913188;29;20044;-66
2023/05/18 00:56:12;;;;;;;15.25;3.17;;;;;;;;;;4909239;29;20059;-67
2023/05/18 00:59:55;;;;;;;13.40;3.22;;;;;;;;;;4910100;29;20051;-65
2023/05/18 01:03:36;;;;;;;13.52;3.95;;;;;;;;;;4912556;29;20158;-66
2023/05/18 01:07:15;;;;;;;12.48;3.83;;;;;;;;;;4915868;29;20043;-64
2023/05/18 01:10:55;;;;;;;10.20;3.15;;;;;;;;;;4913040;29;20048;-65
2023/05/18 01:14:37;;;;;;;13.50;3.38;;;;;;;;;;4908905;29;20420;-66
2023/05/18 01:18:04;;;;;;;14.57;3.53;;;;;;;;;;4907329;29;20060;-66
2023/05/18 01:21:12;;;;;;;11.13;3.28;;;;;;;;;;4908209;29;20523;-65
2023/05/18 01:24:58;;;;;;;11.15;2.97;;;;;;;;;;4913327;29;20142;-66
2023/05/18 01:28:39;;;;;;;9.45;2.95;;;;;;;;;;4907522;29;20067;-64
2023/05/18 01:32:19;;;;;;;13.25;2.70;;;;;;;;;;4907978;29;20135;-64
2023/05/18 01:36:00;;;;;;;8.98;2.80;;;;;;;;;;4909755;29;20059;-63
2023/05/18 01:39:40;;;;;;;12.10;3.20;;;;;;;;;;4906388;29;20047;-65
2023/05/18 01:43:20;;;;;;;13.77;2.92;;;;;;;;;;4903137;29;20048;-65
2023/05/18 01:47:00;;;;;;;12.48;3.15;;;;;;;;;;4907416;29;20053;-66
2023/05/18 01:50:40;;;;;;;15.90;3.65;;;;;;;;;;4850442;29;20080;-66
2023/05/18 01:54:25;;;;;;;13.23;3.10;;;;;;;;;;4849113;29;20517;-65
2023/05/18 01:58:05;;;;;;;11.82;2.58;;;;;;;;;;4850108;29;20128;-67
2023/05/18 02:01:45;;;;;;;9.52;2.28;;;;;;;;;;4847116;29;20054;-65
2023/05/18 02:05:25;;;;;;;9.38;2.40;;;;;;;;;;4851851;29;20061;-64
2023/05/18 02:09:06;;;;;;;13.77;2.30;;;;;;;;;;4849252;29;20038;-65
2023/05/18 02:12:51;;;;;;;8.65;2.30;;;;;;;;;;4846509;29;20065;-66
2023/05/18 02:16:26;;;;;;;5.45;2.03;;;;;;;;;;4849360;29;20057;-68
2023/05/18 02:20:07;;;;;;;7.50;2.20;;;;;;;;;;4845136;29;20683;-64
2023/05/18 02:23:47;;;;;;;4.63;1.95;;;;;;;;;;4869380;29;20048;-65
2023/05/18 02:27:28;;;;;;;6.10;1.85;;;;;;;;;;4911744;29;20048;-65
2023/05/18 02:31:08;;;;;;;6.72;1.90;;;;;;;;;;4911092;29;20052;-66
2023/05/18 02:34:49;;;;;;;8.60;2.30;;;;;;;;;;4915232;29;20051;-65
2023/05/18 02:38:29;;;;;;;12.20;2.20;;;;;;;;;;4912658;29;20044;-65
2023/05/18 02:42:09;;;;;;;9.75;1.60;;;;;;;;;;4914499;29;20567;-65
2023/05/18 02:45:50;;;;;;;12.68;2.90;;;;;;;;;;4913745;29;20052;-64
2023/05/18 02:49:32;;;;;;;12.88;2.50;;;;;;;;;;4913296;29;20040;-65
2023/05/18 02:53:10;;;;;;;13.35;2.45;;;;;;;;;;4909495;29;20036;-66
2023/05/18 02:56:50;;;;;;;11.38;2.20;;;;;;;;;;4909121;29;20048;-63
2023/05/18 03:00:31;;;;;;;8.18;2.17;;;;;;;;;;4910380;29;20099;-62
2023/05/18 03:04:15;;;;;;;10.85;2.60;;;;;;;;;;4912196;29;20077;-63
2023/05/18 03:07:54;;;;;;;12.23;2.13;;;;;;;;;;4909679;29;21989;-64
2023/05/18 03:11:34;;;;;;;20.20;2.67;;;;;;;;;;4913101;29;20135;-67
2023/05/18 03:15:15;;;;;;;10.88;2.50;;;;;;;;;;4915774;29;20048;-63
2023/05/18 03:18:57;;;;;;;17.80;3.50;;;;;;;;;;4913536;29;20196;-64
2023/05/18 03:22:36;;;;;;;10.07;2.40;;;;;;;;;;4910587;29;20044;-63
2023/05/18 03:26:16;;;;;;;13.13;2.33;;;;;;;;;;4908241;29;20068;-65
2023/05/18 03:29:56;;;;;;;10.65;2.47;;;;;;;;;;4909063;29;20129;-64
2023/05/18 03:33:37;;;;;;;5.80;1.73;;;;;;;;;;4910972;29;20047;-66
2023/05/18 03:37:17;;;;;;;7.70;1.90;;;;;;;;;;4911927;29;20055;-66
2023/05/18 03:40:58;;;;;;;9.15;1.80;;;;;;;;;;4912763;29;20083;-66
2023/05/18 03:44:38;;;;;;;8.52;2.03;;;;;;;;;;4906433;29;20071;-66
2023/05/18 03:48:18;;;;;;;10.73;1.88;;;;;;;;;;4914645;29;20114;-64
2023/05/18 03:51:58;;;;;;;6.40;1.90;;;;;;;;;;4910595;29;20044;-64
2023/05/18 03:55:40;;;;;;;5.28;2.05;;;;;;;;;;4908115;29;20044;-64
2023/05/18 03:59:19;;;;;;;4.38;1.63;;;;;;;;;;4909778;29;20083;-64
2023/05/18 04:03:01;;;;;;;4.75;1.27;;;;;;;;;;4911490;29;20126;-64
2023/05/18 04:06:40;;;;;;;5.18;1.38;;;;;;;;;;4909419;29;20051;-64
2023/05/18 04:10:23;;;;;;;5.63;1.40;;;;;;;;;;4908301;29;20066;-64
2023/05/18 04:14:04;;;;;;;4.05;1.38;;;;;;;;;;4909467;29;20465;-65
2023/05/18 04:17:44;;;;;;;3.50;1.40;;;;;;;;;;4909418;29;20066;-69
2023/05/18 04:21:24;;;;;;;4.07;1.50;;;;;;;;;;4911240;29;20060;-64
2023/05/18 04:25:06;;;;;;;3.72;1.38;;;;;;;;;;4907335;29;20089;-64
2023/05/18 04:28:47;;;;;;;5.80;1.45;;;;;;;;;;4905067;29;20135;-62
2023/05/18 04:32:29;;;;;;;6.47;1.50;;;;;;;;;;4908892;29;20044;-62
2023/05/18 04:35:30;;;;;;;6.18;1.48;;;;;;;;;;4907987;29;20542;-63
2023/05/18 04:38:37;;;;;;;6.65;1.85;;;;;;;;;;4911984;29;20500;-63
2023/05/18 04:42:17;;;;;;;4.18;1.70;;;;;;;;;;4902145;29;20155;-62
2023/05/18 04:45:57;;;;;;;7.72;1.65;;;;;;;;;;4907786;29;20488;-62
2023/05/18 04:49:37;;;;;;;7.80;2.20;;;;;;;;;;4906533;29;20063;-61
2023/05/18 04:53:17;;;;;;;5.78;1.98;;;;;;;;;;4908942;29;20512;-61
2023/05/18 04:56:58;;;;;;;6.88;1.75;;;;;;;;;;4909728;29;20048;-61
2023/05/18 05:00:38;;;;;;;8.40;2.13;;;;;;;;;;4899705;29;20044;-61
2023/05/18 05:04:18;;;;;;;6.90;1.80;;;;;;;;;;4910573;29;20147;-62
2023/05/18 05:07:58;;;;;;;5.22;2.10;;;;;;;;;;4904569;29;20060;-62
2023/05/18 05:11:39;;;;;;;8.02;2.15;;;;;;;;;;4909088;29;20043;-63
2023/05/18 05:15:19;;;;;;;7.47;2.40;;;;;;;;;;4913070;29;20448;-62
2023/05/18 05:19:00;;;;;;;8.45;2.42;;;;;;;;;;4911352;29;20126;-63
2023/05/18 05:22:40;;;;;;;6.97;2.40;;;;;;;;;;4903779;29;20123;-62
2023/05/18 05:26:21;;;;;;;8.75;2.95;;;;;;;;;;4906147;29;20052;-68
2023/05/18 05:30:04;;;;;;;9.02;2.83;;;;;;;;;;4909028;29;20515;-63
2023/05/18 05:33:44;;;;;;;9.25;3.08;;;;;;;;;;4908030;29;20055;-64
2023/05/18 05:37:27;;;;;;;9.27;3.13;;;;;;;;;;4901309;29;20107;-63
2023/05/18 05:41:07;;;;;;;8.93;3.05;;;;;;;;;;4910203;29;20059;-64
2023/05/18 05:44:48;;;;;;;6.93;3.05;;;;;;;;;;4906841;29;20071;-63
2023/05/18 05:48:28;;;;;;;9.38;3.25;;;;;;;;;;4904471;29;20181;-66
2023/05/18 05:52:08;;;;;;;11.65;3.60;;;;;;;;;;4905195;29;20048;-67
2023/05/18 05:55:49;;;;;;;13.10;3.80;;;;;;;;;;4911373;29;20099;-66
2023/05/18 05:59:29;;;;;;;9.98;3.65;;;;;;;;;;4905119;29;20040;-64
2023/05/18 06:03:09;;;;;;;10.07;3.38;;;;;;;;;;4906059;29;20052;-65
2023/05/18 06:06:50;;;;;;;9.45;3.17;;;;;;;;;;4903705;29;20104;-66
2023/05/18 06:10:30;;;;;;;9.32;3.30;;;;;;;;;;4903902;29;20071;-64
2023/05/18 06:14:11;;;;;;;13.40;3.90;;;;;;;;;;4909816;29;20520;-65
2023/05/18 06:17:51;;;;;;;9.25;3.10;;;;;;;;;;4904623;29;20060;-65
2023/05/18 06:21:33;;;;;;;12.85;3.40;;;;;;;;;;4909193;29;20066;-67
2023/05/18 06:24:08;;;;;;;6.85;2.95;;;;;;;;;;4909641;29;20134;-66
2023/05/18 06:26:34;;;;;;;10.40;2.85;;;;;;;;;;4902846;29;20067;-63
2023/05/18 06:29:00;;;;;;;12.75;3.17;;;;;;;;;;4908730;29;20044;-65
2023/05/18 06:31:27;;;;;;;8.95;3.03;;;;;;;;;;4907938;29;20511;-64
2023/05/18 06:33:54;;;;;;;12.88;3.47;;;;;;;;;;4910775;29;20139;-65
2023/05/18 06:36:21;;;;;;;8.45;3.05;;;;;;;;;;4907744;29;20080;-62
2023/05/18 06:38:47;;;;;;;10.35;3.38;;;;;;;;;;4900527;29;20058;-64
2023/05/18 06:41:13;;;;;;;13.25;3.70;;;;;;;;;;4909263;29;20139;-62
2023/05/18 06:43:43;;;;;;;10.00;3.88;;;;;;;;;;4909771;29;20152;-63
2023/05/18 06:46:08;;;;;;;12.52;3.78;;;;;;;;;;4905673;29;20086;-61
2023/05/18 06:48:37;;;;;;;13.02;3.47;;;;;;;;;;4903848;29;20435;-65
2023/05/18 06:51:44;;;;;;;10.30;3.28;;;;;;;;;;4909922;29;20087;-64
2023/05/18 06:54:44;;;;;;;15.80;3.53;;;;;;;;;;4904282;29;20048;-68
2023/05/18 06:57:11;;;;;;;10.93;3.45;;;;;;;;;;4910290;29;20115;-63
2023/05/18 07:00:32;;;;;;;13.25;3.40;;;;;;;;;;4906570;29;20138;-66
2023/05/18 07:04:14;;;;;;;12.50;3.30;;;;;;;;;;4907878;29;20505;-64
2023/05/18 07:07:54;;;;;;;11.73;2.95;;;;;;;;;;4906727;29;20058;-69
2023/05/18 07:11:34;;;;;;;15.68;3.17;;;;;;;;;;4906741;29;20087;-64
2023/05/18 07:15:15;;;;;;;9.27;3.10;;;;;;;;;;4910016;29;20127;-66
2023/05/18 07:18:55;;;;;;;11.73;3.80;;;;;;;;;;4912912;29;20064;-65
2023/05/18 07:22:35;;;;;;;19.50;3.95;;;;;;;;;;4908830;29;20508;-63
2023/05/18 07:26:17;;;;;;;15.75;4.18;;;;;;;;;;4912080;29;20086;-65
2023/05/18 07:29:58;;;;;;;13.68;4.68;;;;;;;;;;4909218;29;20123;-64
2023/05/18 07:33:38;;;;;;;16.52;4.50;;;;;;;;;;4906046;29;20127;-63
2023/05/18 07:37:18;;;;;;;19.23;4.68;;;;;;;;;;4910084;29;20119;-63
2023/05/18 07:40:59;;;;;;;11.73;4.32;;;;;;;;;;4911543;29;20052;-64
2023/05/18 07:44:39;;;;;;;12.07;4.05;;;;;;;;;;4912542;29;20520;-66
2023/05/18 07:48:20;;;;;;;16.17;4.60;;;;;;;;;;4902918;29;20044;-63
2023/05/18 07:52:01;;;;;;;10.98;4.40;;;;;;;;;;4905601;29;20057;-63
2023/05/18 07:55:41;;;;;;;12.50;3.90;;;;;;;;;;4909877;29;20052;-65
2023/05/18 07:59:22;;;;;;;13.52;4.45;;;;;;;;;;4910569;29;20052;-63
2023/05/18 08:03:05;;;;;;;8.52;3.55;;;;;;;;;;4909302;29;20059;-65
2023/05/18 08:06:45;;;;;;;12.25;3.90;;;;;;;;;;4912522;29;20047;-63
2023/05/18 08:10:25;;;;;;;8.85;3.88;;;;;;;;;;4909423;29;20051;-64
2023/05/18 08:14:06;;;;;;;13.95;3.47;;;;;;;;;;4906360;29;20040;-66
2023/05/18 08:17:46;;;;;;;13.02;4.20;;;;;;;;;;4905802;29;20554;-64
2023/05/18 08:21:27;;;;;;;13.60;4.25;;;;;;;;;;4904898;29;20076;-67
2023/05/18 08:25:09;;;;;;;7.70;3.58;;;;;;;;;;4907249;29;20048;-64
2023/05/18 08:28:48;;;;;;;13.55;4.22;;;;;;;;;;4912775;29;20417;-65
2023/05/18 08:32:30;;;;;;;10.65;4.05;;;;;;;;;;4908113;29;20052;-63
2023/05/18 08:36:10;;;;;;;12.70;4.15;;;;;;;;;;4906985;29;20071;-65
2023/05/18 08:39:51;;;;;;;10.80;4.20;;;;;;;;;;4906020;29;20040;-66
2023/05/18 08:43:50;;;;;;;12.48;4.80;;;;;;;;;;4907121;29;20051;-66
2023/05/18 08:47:31;;;;;;;14.38;3.97;;;;;;;;;;4909635;29;20055;-66
2023/05/18 08:51:11;;;;;;;13.00;3.38;;;;;;;;;;4906352;29;20064;-67
2023/05/18 08:54:51;;;;;;;10.25;3.30;;;;;;;;;;4911731;29;20052;-71
2023/05/18 08:58:34;;;;;;;16.17;3.22;;;;;;;;;;4913854;29;20075;-65
2023/05/18 09:02:16;;;;;;;9.75;3.17;;;;;;;;;;4912485;29;20126;-70
2023/05/18 09:05:58;;;;;;;10.75;2.83;;;;;;;;;;4907231;29;20079;-69
2023/05/18 09:09:03;;;;;;;7.57;2.58;;;;;;;;;;4906535;29;20052;-70
2023/05/18 09:11:34;;;;;;;7.20;3.05;;;;;;;;;;4911461;29;20067;-70
2023/05/18 09:14:40;;;;;;;9.45;2.88;;;;;;;;;;4907644;29;20868;-72
2023/05/18 09:18:20;;;;;;;5.82;2.67;;;;;;;;;;4903303;29;20051;-70
2023/05/18 09:22:04;;;;;;;10.10;2.90;;;;;;;;;;4909517;29;20071;-71
2023/05/18 09:25:45;;;;;;;10.88;2.80;;;;;;;;;;4903803;29;20048;-71
2023/05/18 09:29:34;;;;;;;11.30;2.95;;;;;;;;;;4905974;29;20052;-72
2023/05/18 09:33:15;;;;;;;12.13;3.38;;;;;;;;;;4910499;29;20052;-70
2023/05/18 09:36:56;;;;;;;6.70;2.50;;;;;;;;;;4909107;29;20063;-71
2023/05/18 09:40:38;;;;;;;10.00;2.90;;;;;;;;;;4909308;29;20083;-68
2023/05/18 09:44:18;;;;;;;10.00;3.13;;;;;;;;;;4909309;29;20127;-69
2023/05/18 09:47:59;;;;;;;9.50;2.80;;;;;;;;;;4903697;29;20133;-67
2023/05/18 09:51:40;;;;;;;13.07;2.22;;;;;;;;;;4909312;29;20064;-71
2023/05/18 09:55:21;;;;;;;6.72;2.38;;;;;;;;;;4912028;29;20064;-68
2023/05/18 09:59:04;;;;;;;22.77;3.38;;;;;;;;;;4912075;29;20075;-71
2023/05/18 10:02:47;;;;;;;8.85;2.95;;;;;;;;;;4912421;29;20048;-72
2023/05/18 10:06:29;;;;;;;7.30;2.17;;;;;;;;;;4907381;29;20044;-70
2023/05/18 10:10:10;;;;;;;7.35;2.10;;;;;;;;;;4910572;29;20051;-70
2023/05/18 10:13:55;;;;;;;9.43;2.95;;;;;;;;;;4906327;29;20059;-66
2023/05/18 10:17:37;;;;;;;7.50;2.78;;;;;;;;;;4901968;29;20078;-67
2023/05/18 10:21:17;;;;;;;8.57;2.80;;;;;;;;;;4905872;29;20066;-73
2023/05/18 10:24:57;;;;;;;9.45;2.90;;;;;;;;;;4908772;29;20048;-68
2023/05/18 10:28:40;;;;;;;8.45;2.83;;;;;;;;;;4910580;29;20055;-67
2023/05/18 10:32:23;;;;;;;9.30;2.80;;;;;;;;;;4905250;29;20192;-70
2023/05/18 10:36:03;;;;;;;9.02;2.78;;;;;;;;;;4910242;29;20100;-73
2023/05/18 10:39:45;;;;;;;7.05;2.47;;;;;;;;;;4908734;29;20060;-73
2023/05/18 10:43:28;;;;;;;8.52;2.63;;;;;;;;;;4905203;29;20044;-70
2023/05/18 10:47:10;;;;;;;11.98;2.38;;;;;;;;;;4911695;29;20050;-70
2023/05/18 10:50:49;;;;;;;9.63;3.10;;;;;;;;;;4911745;29;20048;-71
2023/05/18 10:54:32;;;;;;;14.98;3.28;;;;;;;;;;4908219;29;20060;-70
2023/05/18 10:58:18;;;;;;;5.80;2.40;;;;;;;;;;4909250;29;20130;-71
2023/05/18 11:01:40;;;;;;;;;;;;;;;;;;4912847;29;20163;-70
2023/05/18 11:05:21;;;;;;;13.02;3.35;;;;;;;;;;4907994;29;20431;-71
2023/05/18 11:09:09;;;;;;;15.25;4.00;;;;;;;;;;4912082;29;20144;-71
2023/05/18 11:12:52;;;;;;;13.77;2.65;;;;;;;;;;4905888;29;20052;-68
2023/05/18 11:15:57;;;;;;;10.32;3.20;;;;;;;;;;4900954;29;20346;-71
2023/05/18 11:19:37;;;;;;;10.82;3.33;;;;;;;;;;4910491;29;20056;-69
2023/05/18 11:23:21;;;;;;;9.30;3.40;;;;;;;;;;4912473;29;20063;-71
2023/05/18 11:27:03;;;;;;;6.57;2.90;;;;;;;;;;4909115;29;20079;-69
2023/05/18 11:30:48;;;;;;;8.90;3.15;;;;;;;;;;4908737;29;20437;-69
2023/05/18 11:34:26;;;;;;;8.75;2.95;;;;;;;;;;4908428;29;20118;-70
2023/05/18 11:37:40;;;;;;;5.88;3.08;;;;;;;;;;4905301;29;20048;-68
2023/05/18 11:41:22;;;;;;;10.70;3.35;;;;;;;;;;4913261;29;20071;-72
2023/05/18 11:45:02;;;;;;;8.68;3.25;;;;;;;;;;4908549;29;20040;-70
2023/05/18 11:48:43;;;;;;;7.53;2.78;;;;;;;;;;4910326;29;20044;-69
2023/05/18 11:52:43;;;;;;;9.60;3.33;;;;;;;;;;4906714;29;20048;-71
2023/05/18 11:56:24;;;;;;;8.77;2.58;;;;;;;;;;4901122;29;20536;-69
2023/05/18 12:00:14;;;;;;;7.43;2.88;;;;;;;;;;4912321;29;20040;-70
2023/05/18 12:03:53;;;;;;;9.88;2.45;;;;;;;;;;4912026;29;20051;-70
2023/05/18 12:07:36;;;;;;;7.60;2.67;;;;;;;;;;4903994;29;20385;-72
2023/05/18 12:11:16;;;;;;;10.40;2.70;;;;;;;;;;4913044;29;20063;-70
2023/05/18 12:15:01;;;;;;;8.15;2.78;;;;;;;;;;4912178;29;20044;-70
2023/05/18 12:18:43;;;;;;;13.55;2.78;;;;;;;;;;4907720;29;20473;-70
2023/05/18 12:22:22;;;;;;;10.52;2.72;;;;;;;;;;4906866;29;20063;-71
2023/05/18 12:26:02;;;;;;;6.50;2.65;;;;;;;;;;4907341;29;20139;-71
2023/05/18 12:29:43;;;;;;;6.45;2.60;;;;;;;;;;4910616;29;20933;-69
2023/05/18 12:33:28;;;;;;;6.63;2.60;;;;;;;;;;4899444;29;20442;-71
2023/05/18 12:37:11;;;;;;;5.60;2.22;;;;;;;;;;4901422;29;20052;-70
2023/05/18 12:40:56;;;;;;;7.15;2.88;;;;;;;;;;4908818;29;20059;-71
2023/05/18 12:44:36;;;;;;;13.30;2.45;;;;;;;;;;4909305;29;20407;-69
2023/05/18 12:48:16;;;;;;;9.10;2.85;;;;;;;;;;4903104;29;20288;-69
2023/05/18 12:51:59;;;;;;;7.57;2.35;;;;;;;;;;4910330;29;20134;-71
2023/05/18 12:55:40;;;;;;;7.90;2.15;;;;;;;;;;4912273;29;20068;-70
2023/05/18 12:59:21;;;;;;;7.68;2.33;;;;;;;;;;4908832;29;20052;-70
2023/05/18 13:03:07;;;;;;;8.23;2.28;;;;;;;;;;4903829;29;20509;-70
2023/05/18 13:06:28;;;;;;;;;;;;;;;;;;4905225;29;20068;-71
2023/05/18 13:10:11;;;;;;;5.93;2.33;;;;;;;;;;4912066;29;20355;-70
2023/05/18 13:13:51;;;;;;;15.55;2.55;;;;;;;;;;4910021;29;20048;-71
2023/05/18 13:17:34;;;;;;;11.43;2.33;;;;;;;;;;4900182;29;20045;-70
2023/05/18 13:21:11;;;;;;;7.82;2.38;;;;;;;;;;4908185;29;20056;-72
2023/05/18 13:24:51;;;;;;;13.27;2.90;;;;;;;;;;4912386;29;20476;-71
2023/05/18 13:28:31;;;;;;;10.50;2.47;;;;;;;;;;4908101;29;20048;-72
2023/05/18 13:32:13;;;;;;;13.85;2.78;;;;;;;;;;4905269;29;21904;-71
2023/05/18 13:35:54;;;;;;;10.27;2.80;;;;;;;;;;4909116;29;20111;-72
2023/05/18 13:39:36;;;;;;;10.98;2.70;;;;;;;;;;4909317;29;20054;-71
2023/05/18 13:43:16;;;;;;;6.93;2.20;;;;;;;;;;4910700;29;20047;-71
2023/05/18 13:46:56;;;;;;;10.73;2.45;;;;;;;;;;4909414;29;20055;-72
2023/05/18 13:50:37;;;;;;;10.48;2.60;;;;;;;;;;4912657;29;20047;-71
2023/05/18 13:54:17;;;;;;;10.48;2.72;;;;;;;;;;4913209;29;20055;-71
2023/05/18 13:57:58;;;;;;;12.68;2.90;;;;;;;;;;4905036;29;20048;-70
2023/05/18 14:01:41;;;;;;;8.52;2.50;;;;;;;;;;4909455;29;20052;-71
2023/05/18 14:05:18;;;;;;;8.10;2.40;;;;;;;;;;4908491;29;20075;-69
2023/05/18 14:09:00;;;;;;;9.32;2.38;;;;;;;;;;4906411;29;20347;-69
2023/05/18 14:12:43;;;;;;;9.77;3.10;;;;;;;;;;4911022;29;20400;-72
2023/05/18 14:16:26;;;;;;;9.73;2.47;;;;;;;;;;4911283;29;20044;-71
2023/05/18 14:20:06;;;;;;;11.65;2.83;;;;;;;;;;4916536;29;20127;-71
2023/05/18 14:23:47;;;;;;;8.52;2.83;;;;;;;;;;4916986;29;20130;-72
2023/05/18 14:27:27;;;;;;;12.98;2.78;;;;;;;;;;4911623;29;20344;-72
2023/05/18 14:31:10;;;;;;;9.77;2.47;;;;;;;;;;4912951;29;20091;-71
2023/05/18 14:34:52;;;;;;;9.02;2.45;;;;;;;;;;4914452;29;20568;-69
2023/05/18 14:38:31;;;;;;;8.73;2.45;;;;;;;;;;4910859;29;20051;-72
2023/05/18 14:42:12;;;;;;;10.27;2.85;;;;;;;;;;4911420;29;20062;-69
2023/05/18 14:45:53;;;;;;;11.93;3.67;;;;;;;;;;4913941;29;20048;-71
2023/05/18 14:49:35;;;;;;;8.77;2.80;;;;;;;;;;4917764;29;20044;-71
2023/05/18 14:53:15;;;;;;;11.85;2.75;;;;;;;;;;4909631;29;20048;-69
2023/05/18 14:56:57;;;;;;;10.18;2.65;;;;;;;;;;4910063;29;20059;-70
2023/05/18 15:00:37;;;;;;;11.80;2.67;;;;;;;;;;4909238;29;20211;-66
2023/05/18 15:04:20;;;;;;;12.32;2.88;;;;;;;;;;4908183;29;20055;-70
2023/05/18 15:07:58;;;;;;;13.25;2.92;;;;;;;;;;4903090;29;20111;-70
2023/05/18 15:11:41;;;;;;;9.93;2.33;;;;;;;;;;4908808;29;20047;-70
2023/05/18 15:15:22;;;;;;;6.93;2.50;;;;;;;;;;4902366;29;20060;-70
2023/05/18 15:19:03;;;;;;;8.95;2.50;;;;;;;;;;4910880;29;20095;-68
2023/05/18 15:22:43;;;;;;;11.68;2.60;;;;;;;;;;4909423;29;20056;-73
2023/05/18 15:26:23;;;;;;;9.55;2.50;;;;;;;;;;4913260;29;20051;-71
2023/05/18 15:30:10;;;;;;;8.13;2.55;;;;;;;;;;4911984;29;20047;-72
2023/05/18 15:33:44;;;;;;;10.02;2.85;;;;;;;;;;4907090;29;21926;-72
2023/05/18 15:37:26;;;;;;;10.93;2.85;;;;;;;;;;4912498;29;20054;-72
2023/05/18 15:41:08;;;;;;;12.27;2.85;;;;;;;;;;4913028;29;20040;-72
2023/05/18 15:44:50;;;;;;;11.73;2.72;;;;;;;;;;4910738;29;20079;-73
2023/05/18 15:48:31;;;;;;;6.95;2.75;;;;;;;;;;4913853;29;20461;-72
2023/05/18 15:52:14;;;;;;;8.27;2.92;;;;;;;;;;4914960;29;20055;-72
2023/05/18 15:55:54;;;;;;;10.32;3.03;;;;;;;;;;4915113;29;20458;-72
2023/05/18 15:59:36;;;;;;;9.10;2.58;;;;;;;;;;4908121;29;20139;-69
2023/05/18 16:03:16;;;;;;;6.43;2.72;;;;;;;;;;4905838;29;20139;-68
2023/05/18 16:06:56;;;;;;;10.05;2.75;;;;;;;;;;4907742;29;20048;-67
2023/05/18 16:10:37;;;;;;;10.13;2.83;;;;;;;;;;4910224;29;20044;-71
2023/05/18 16:14:17;;;;;;;8.13;2.47;;;;;;;;;;4910742;29;20048;-69
2023/05/18 16:17:59;;;;;;;7.45;2.85;;;;;;;;;;4913858;29;20056;-71
2023/05/18 16:21:39;;;;;;;8.10;2.35;;;;;;;;;;4912778;29;20048;-71
2023/05/18 16:25:21;;;;;;;5.72;2.40;;;;;;;;;;4904816;29;20396;-71
2023/05/18 16:29:02;;;;;;;6.00;2.42;;;;;;;;;;4909794;29;20111;-70
2023/05/18 16:32:42;;;;;;;8.40;2.42;;;;;;;;;;4905595;29;20044;-69
2023/05/18 16:36:23;;;;;;;10.50;2.63;;;;;;;;;;4912706;29;20044;-70
2023/05/18 16:40:02;;;;;;;10.43;2.70;;;;;;;;;;4913265;29;20048;-71
2023/05/18 16:43:42;;;;;;;10.95;2.78;;;;;;;;;;4906426;29;20044;-72
2023/05/18 16:47:22;;;;;;;8.65;2.75;;;;;;;;;;4912559;29;20103;-72
2023/05/18 16:51:09;;;;;;;7.13;2.85;;;;;;;;;;4913101;29;20222;-71
2023/05/18 16:54:51;;;;;;;6.30;2.50;;;;;;;;;;4911024;29;20135;-68
2023/05/18 16:58:31;;;;;;;8.07;2.65;;;;;;;;;;4910020;29;20111;-66
2023/05/18 17:02:12;;;;;;;9.50;3.10;;;;;;;;;;4912972;29;20067;-67
2023/05/18 17:05:57;;;;;;;7.35;2.30;;;;;;;;;;4903933;29;20263;-70
2023/05/18 17:09:40;;;;;;;8.30;2.70;;;;;;;;;;4910026;29;20079;-69
2023/05/18 17:13:18;;;;;;;8.32;2.58;;;;;;;;;;4908648;29;20052;-69
2023/05/18 17:16:59;;;;;;;5.57;2.25;;;;;;;;;;4909758;29;20737;-71
2023/05/18 17:20:39;;;;;;;7.70;2.60;;;;;;;;;;4905797;29;20060;-71
2023/05/18 17:24:26;;;;;;;9.07;2.65;;;;;;;;;;4913120;29;20051;-71
2023/05/18 17:28:07;;;;;;;7.28;2.30;;;;;;;;;;4911088;29;20047;-69
2023/05/18 17:31:47;;;;;;;10.35;2.72;;;;;;;;;;4904525;29;20624;-70
2023/05/18 17:35:27;;;;;;;6.47;2.38;;;;;;;;;;4912558;29;20099;-71
2023/05/18 17:39:11;;;;;;;8.65;2.55;;;;;;;;;;4912562;29;20060;-71
2023/05/18 17:42:53;;;;;;;7.88;2.42;;;;;;;;;;4908242;29;20048;-69
2023/05/18 17:46:34;;;;;;;6.70;2.42;;;;;;;;;;4908132;29;20064;-69
2023/05/18 17:50:14;;;;;;;8.43;3.13;;;;;;;;;;4907050;29;20050;-71
2023/05/18 17:53:56;;;;;;;7.18;2.72;;;;;;;;;;4909659;29;20044;-70
2023/05/18 17:57:43;;;;;;;5.53;2.50;;;;;;;;;;4905848;29;20143;-70
2023/05/18 18:01:20;;;;;;;13.75;3.03;;;;;;;;;;4909880;29;20083;-71
2023/05/18 18:05:00;;;;;;;6.90;3.00;;;;;;;;;;4911721;29;20079;-69
2023/05/18 18:08:41;;;;;;;8.38;2.55;;;;;;;;;;4911207;29;20538;-70
2023/05/18 18:12:21;;;;;;;11.45;3.10;;;;;;;;;;4912780;29;20059;-69
2023/05/18 18:16:05;;;;;;;8.18;3.20;;;;;;;;;;4905350;29;20048;-71
2023/05/18 18:19:45;;;;;;;6.55;2.70;;;;;;;;;;4906712;29;20063;-70
2023/05/18 18:23:27;;;;;;;7.70;2.40;;;;;;;;;;4903930;29;20050;-69
2023/05/18 18:27:07;;;;;;;10.43;2.70;;;;;;;;;;4901300;29;20055;-70
2023/05/18 18:30:48;;;;;;;9.70;2.95;;;;;;;;;;4908863;29;20047;-70
2023/05/18 18:34:28;;;;;;;7.90;2.47;;;;;;;;;;4909783;29;20450;-69
2023/05/18 18:38:08;;;;;;;7.35;2.72;;;;;;;;;;4903852;29;20078;-71
2023/05/18 18:41:49;;;;;;;9.57;2.65;;;;;;;;;;4904633;29;20096;-70
2023/05/18 18:45:30;;;;;;;7.47;2.55;;;;;;;;;;4912500;29;20135;-70
2023/05/18 18:49:11;;;;;;;6.65;2.30;;;;;;;;;;4909580;29;20130;-70
2023/05/18 18:52:51;;;;;;;9.25;2.75;;;;;;;;;;4906589;29;20036;-69
2023/05/18 18:56:31;;;;;;;7.85;2.17;;;;;;;;;;4909909;29;20493;-70
2023/05/18 19:00:13;;;;;;;9.98;2.63;;;;;;;;;;4904596;29;20058;-68
2023/05/18 19:03:52;;;;;;;5.03;2.38;;;;;;;;;;4911806;29;20408;-65
2023/05/18 19:07:36;;;;;;;6.32;2.22;;;;;;;;;;4911480;29;20131;-66
2023/05/18 19:11:22;;;;;;;8.80;2.58;;;;;;;;;;4907140;29;20052;-64
2023/05/18 19:15:01;;;;;;;14.63;2.72;;;;;;;;;;4909866;29;20048;-65
2023/05/18 19:18:46;;;;;;;6.53;2.42;;;;;;;;;;4913020;29;20060;-66
2023/05/18 19:22:27;;;;;;;8.70;2.63;;;;;;;;;;4912689;29;20390;-69
2023/05/18 19:26:07;;;;;;;11.95;2.58;;;;;;;;;;4914760;29;20416;-65
2023/05/18 19:29:48;;;;;;;10.15;2.80;;;;;;;;;;4912121;29;20071;-68
2023/05/18 19:33:28;;;;;;;7.28;2.70;;;;;;;;;;4905057;29;20537;-69
2023/05/18 19:37:08;;;;;;;10.32;2.67;;;;;;;;;;4910970;29;20328;-68
2023/05/18 19:40:49;;;;;;;13.80;2.75;;;;;;;;;;4909633;29;20057;-71
2023/05/18 19:44:30;;;;;;;11.02;2.92;;;;;;;;;;4910253;29;20048;-69
2023/05/18 19:48:11;;;;;;;8.80;3.10;;;;;;;;;;4912137;29;20056;-68
2023/05/18 19:51:54;;;;;;;9.95;2.90;;;;;;;;;;4902776;29;20081;-69
2023/05/18 19:55:35;;;;;;;8.45;2.50;;;;;;;;;;4913993;29;20358;-68
2023/05/18 19:59:17;;;;;;;10.45;2.78;;;;;;;;;;4912008;29;20405;-70
2023/05/18 20:02:57;;;;;;;12.05;2.63;;;;;;;;;;4907226;29;20537;-67
2023/05/18 20:06:38;;;;;;;8.73;3.92;;;;;;;;;;4910761;29;20048;-70
2023/05/18 20:10:18;;;;;;;8.93;2.58;;;;;;;;;;4907128;29;20467;-70
2023/05/18 20:13:58;;;;;;;10.23;2.80;;;;;;;;;;4907654;29;20051;-70
2023/05/18 20:17:41;;;;;;;11.93;2.70;;;;;;;;;;4911350;29;20451;-70
2023/05/18 20:21:21;;;;;;;7.07;2.70;;;;;;;;;;4909077;29;20742;-69
2023/05/18 20:25:04;;;;;;;7.95;2.70;;;;;;;;;;4907746;29;20048;-69
2023/05/18 20:28:41;;;;;;;8.52;2.67;;;;;;;;;;4911131;29;20345;-69
2023/05/18 20:32:22;;;;;;;13.77;3.20;;;;;;;;;;4913681;29;20055;-69
2023/05/18 20:36:02;;;;;;;12.43;3.00;;;;;;;;;;4910630;29;20064;-69
2023/05/18 20:39:49;;;;;;;8.88;2.80;;;;;;;;;;4911567;29;20131;-68
2023/05/18 20:43:23;;;;;;;8.98;2.80;;;;;;;;;;4908217;29;20056;-69
2023/05/18 20:47:03;;;;;;;9.02;2.95;;;;;;;;;;4912187;29;20052;-68
2023/05/18 20:50:44;;;;;;;9.75;3.05;;;;;;;;;;4909649;29;20048;-66
2023/05/18 20:54:26;;;;;;;12.93;2.83;;;;;;;;;;4905926;29;20082;-69
2023/05/18 20:58:09;;;;;;;9.32;3.00;;;;;;;;;;4910958;29;20047;-69
2023/05/18 21:01:49;;;;;;;12.13;3.15;;;;;;;;;;4909139;29;20173;-69
2023/05/18 21:05:28;;;;;;;12.63;2.67;;;;;;;;;;4910666;29;20059;-69
2023/05/18 21:09:09;;;;;;;8.95;3.10;;;;;;;;;;4905760;29;20044;-69
2023/05/18 21:12:49;;;;;;;6.28;2.80;;;;;;;;;;4909339;29;20056;-70
2023/05/18 21:16:49;;;;;;;8.95;2.58;;;;;;;;;;4907199;29;20051;-67
2023/05/18 21:20:31;;;;;;;7.75;2.40;;;;;;;;;;4911041;29;20052;-72
2023/05/18 21:24:13;;;;;;;11.95;2.35;;;;;;;;;;4910424;29;20388;-69
2023/05/18 21:27:56;;;;;;;9.82;2.85;;;;;;;;;;4910610;29;20068;-68
2023/05/18 21:31:36;;;;;;;13.13;2.90;;;;;;;;;;4910435;29;20051;-70
2023/05/18 21:35:16;;;;;;;6.43;2.40;;;;;;;;;;4901367;29;20087;-68